sensor_id;sensor_type;location;lat;lon;timestamp;temperature;humidity
39957;DHT22;48483;44.640;7.494;2023-06-10T00:00:47;19.60;99.90
39957;DHT22;48483;44.640;7.494;2023-06-10T00:03:13;19.60;99.90
39957;DHT22;48483;44.640;7.494;2023-06-10T00:05:42;19.60;99.90
39957;DHT22;48483;44.640;7.494;2023-06-10T00:08:08;19.60;99.90
39957;DHT22;48483;44.640;7.494;2023-06-10T00:10:37;19.60;99.90
39957;DHT22;48483;44.640;7.494;2023-06-10T00:13:06;19.60;99.90
39957;DHT22;48483;44.640;7.494;2023-06-10T00:15:35;19.60;99.90
39957;DHT22;48483;44.640;7.494;2023-06-10T00:18:02;19.60;99.90
39957;DHT22;48483;44.640;7.494;2023-06-10T00:20:30;19.60;99.90
39957;DHT22;48483;44.640;7.494;2023-06-10T00:22:58;19.60;99.90
39957;DHT22;48483;44.640;7.494;2023-06-10T00:25:25;19.60;99.90
39957;DHT22;48483;44.640;7.494;2023-06-10T00:27:52;19.60;99.90
39957;DHT22;48483;44.640;7.494;2023-06-10T00:30:19;19.60;99.90
39957;DHT22;48483;44.640;7.494;2023-06-10T00:32:46;19.60;99.90
39957;DHT22;48483;44.640;7.494;2023-06-10T00:35:12;19.60;99.90
39957;DHT22;48483;44.640;7.494;2023-06-10T00:37:39;19.60;99.90
39957;DHT22;48483;44.640;7.494;2023-06-10T00:40:08;19.60;99.90
39957;DHT22;48483;44.640;7.494;2023-06-10T00:42:35;19.60;99.90
39957;DHT22;48483;44.640;7.494;2023-06-10T00:45:02;19.50;99.90
39957;DHT22;48483;44.640;7.494;2023-06-10T00:47:31;19.50;99.90
39957;DHT22;48483;44.640;7.494;2023-06-10T00:49:58;19.60;99.90
39957;DHT22;48483;44.640;7.494;2023-06-10T00:52:28;19.60;99.90
39957;DHT22;48483;44.640;7.494;2023-06-10T00:54:54;19.50;99.90
39957;DHT22;48483;44.640;7.494;2023-06-10T00:57:23;19.50;99.90
39957;DHT22;48483;44.640;7.494;2023-06-10T00:59:50;19.50;99.90
39957;DHT22;48483;44.640;7.494;2023-06-10T01:02:17;19.50;99.90
39957;DHT22;48483;44.640;7.494;2023-06-10T01:04:44;19.50;99.90
39957;DHT22;48483;44.640;7.494;2023-06-10T01:07:27;19.50;99.90
39957;DHT22;48483;44.640;7.494;2023-06-10T01:09:58;19.50;99.90
39957;DHT22;48483;44.640;7.494;2023-06-10T01:12:31;19.40;99.90
39957;DHT22;48483;44.640;7.494;2023-06-10T01:15:00;19.40;99.90
39957;DHT22;48483;44.640;7.494;2023-06-10T01:17:28;19.50;99.90
39957;DHT22;48483;44.640;7.494;2023-06-10T01:19:57;19.50;99.90
39957;DHT22;48483;44.640;7.494;2023-06-10T01:22:26;19.50;99.90
39957;DHT22;48483;44.640;7.494;2023-06-10T01:24:58;19.40;99.90
39957;DHT22;48483;44.640;7.494;2023-06-10T01:27:28;19.40;99.90
39957;DHT22;48483;44.640;7.494;2023-06-10T01:30:00;19.40;99.90
39957;DHT22;48483;44.640;7.494;2023-06-10T01:32:34;19.40;99.90
39957;DHT22;48483;44.640;7.494;2023-06-10T01:35:02;19.40;99.90
39957;DHT22;48483;44.640;7.494;2023-06-10T01:37:31;19.40;99.90
39957;DHT22;48483;44.640;7.494;2023-06-10T01:39:59;19.40;99.90
39957;DHT22;48483;44.640;7.494;2023-06-10T01:42:27;19.40;99.90
39957;DHT22;48483;44.640;7.494;2023-06-10T01:44:54;19.40;99.90
39957;DHT22;48483;44.640;7.494;2023-06-10T01:47:21;19.40;99.90
39957;DHT22;48483;44.640;7.494;2023-06-10T01:49:47;19.40;99.90
39957;DHT22;48483;44.640;7.494;2023-06-10T01:52:14;19.40;99.90
39957;DHT22;48483;44.640;7.494;2023-06-10T01:54:42;19.30;99.90
39957;DHT22;48483;44.640;7.494;2023-06-10T01:57:09;19.30;99.90
39957;DHT22;48483;44.640;7.494;2023-06-10T01:59:36;19.30;99.90
39957;DHT22;48483;44.640;7.494;2023-06-10T02:02:04;19.20;99.90
39957;DHT22;48483;44.640;7.494;2023-06-10T02:04:32;19.20;99.90
39957;DHT22;48483;44.640;7.494;2023-06-10T02:07:02;19.20;99.90
39957;DHT22;48483;44.640;7.494;2023-06-10T02:09:30;19.10;99.90
39957;DHT22;48483;44.640;7.494;2023-06-10T02:11:59;19.10;99.90
39957;DHT22;48483;44.640;7.494;2023-06-10T02:14:25;19.10;99.90
39957;DHT22;48483;44.640;7.494;2023-06-10T02:16:52;19.10;99.90
39957;DHT22;48483;44.640;7.494;2023-06-10T02:19:22;19.10;99.90
39957;DHT22;48483;44.640;7.494;2023-06-10T02:21:49;19.10;99.90
39957;DHT22;48483;44.640;7.494;2023-06-10T02:24:17;19.10;99.90
39957;DHT22;48483;44.640;7.494;2023-06-10T02:26:44;19.10;99.90
39957;DHT22;48483;44.640;7.494;2023-06-10T02:29:12;19.10;99.90
39957;DHT22;48483;44.640;7.494;2023-06-10T02:31:39;19.10;99.90
39957;DHT22;48483;44.640;7.494;2023-06-10T02:34:07;19.10;99.90
39957;DHT22;48483;44.640;7.494;2023-06-10T02:36:35;19.00;99.90
39957;DHT22;48483;44.640;7.494;2023-06-10T02:39:02;19.00;99.90
39957;DHT22;48483;44.640;7.494;2023-06-10T02:41:30;19.00;99.90
39957;DHT22;48483;44.640;7.494;2023-06-10T02:43:57;19.00;99.90
39957;DHT22;48483;44.640;7.494;2023-06-10T02:46:25;19.00;99.90
39957;DHT22;48483;44.640;7.494;2023-06-10T02:48:53;19.00;99.90
39957;DHT22;48483;44.640;7.494;2023-06-10T02:51:24;19.00;99.90
39957;DHT22;48483;44.640;7.494;2023-06-10T02:53:57;19.00;99.90
39957;DHT22;48483;44.640;7.494;2023-06-10T02:56:23;19.00;99.90
39957;DHT22;48483;44.640;7.494;2023-06-10T02:58:50;19.00;99.90
39957;DHT22;48483;44.640;7.494;2023-06-10T03:01:18;19.00;99.90
39957;DHT22;48483;44.640;7.494;2023-06-10T03:03:58;19.00;99.90
39957;DHT22;48483;44.640;7.494;2023-06-10T03:06:25;19.00;99.90
39957;DHT22;48483;44.640;7.494;2023-06-10T03:08:56;19.00;99.90
39957;DHT22;48483;44.640;7.494;2023-06-10T03:11:23;19.00;99.90
39957;DHT22;48483;44.640;7.494;2023-06-10T03:13:50;18.90;99.90
39957;DHT22;48483;44.640;7.494;2023-06-10T03:16:19;19.00;99.90
39957;DHT22;48483;44.640;7.494;2023-06-10T03:18:46;19.00;99.90
39957;DHT22;48483;44.640;7.494;2023-06-10T03:21:14;19.00;99.90
39957;DHT22;48483;44.640;7.494;2023-06-10T03:23:41;18.90;99.90
39957;DHT22;48483;44.640;7.494;2023-06-10T03:26:08;18.90;99.90
39957;DHT22;48483;44.640;7.494;2023-06-10T03:28:39;19.00;99.90
39957;DHT22;48483;44.640;7.494;2023-06-10T03:31:06;19.00;99.90
39957;DHT22;48483;44.640;7.494;2023-06-10T03:33:33;19.00;99.90
39957;DHT22;48483;44.640;7.494;2023-06-10T03:35:59;19.00;99.90
39957;DHT22;48483;44.640;7.494;2023-06-10T03:38:28;19.00;99.90
39957;DHT22;48483;44.640;7.494;2023-06-10T03:40:55;19.00;99.90
39957;DHT22;48483;44.640;7.494;2023-06-10T03:43:21;18.90;99.90
39957;DHT22;48483;44.640;7.494;2023-06-10T03:45:50;18.90;99.90
39957;DHT22;48483;44.640;7.494;2023-06-10T03:48:17;19.00;99.90
39957;DHT22;48483;44.640;7.494;2023-06-10T03:50:48;19.00;99.90
39957;DHT22;48483;44.640;7.494;2023-06-10T03:53:17;18.90;99.90
39957;DHT22;48483;44.640;7.494;2023-06-10T03:55:45;18.90;99.90
39957;DHT22;48483;44.640;7.494;2023-06-10T03:58:14;18.90;99.90
39957;DHT22;48483;44.640;7.494;2023-06-10T04:00:42;18.90;99.90
39957;DHT22;48483;44.640;7.494;2023-06-10T04:03:09;18.90;99.90
39957;DHT22;48483;44.640;7.494;2023-06-10T04:05:42;18.80;99.90
39957;DHT22;48483;44.640;7.494;2023-06-10T04:08:09;18.90;99.90
39957;DHT22;48483;44.640;7.494;2023-06-10T04:10:36;18.90;99.90
39957;DHT22;48483;44.640;7.494;2023-06-10T04:13:04;18.80;99.90
39957;DHT22;48483;44.640;7.494;2023-06-10T04:15:36;18.80;99.90
39957;DHT22;48483;44.640;7.494;2023-06-10T04:18:07;18.80;99.90
39957;DHT22;48483;44.640;7.494;2023-06-10T04:20:35;18.80;99.90
39957;DHT22;48483;44.640;7.494;2023-06-10T04:23:01;18.90;99.90
39957;DHT22;48483;44.640;7.494;2023-06-10T04:25:29;18.90;99.90
39957;DHT22;48483;44.640;7.494;2023-06-10T04:27:55;18.90;99.90
39957;DHT22;48483;44.640;7.494;2023-06-10T04:30:23;18.90;99.90
39957;DHT22;48483;44.640;7.494;2023-06-10T04:32:51;18.90;99.90
39957;DHT22;48483;44.640;7.494;2023-06-10T04:35:18;18.90;99.90
39957;DHT22;48483;44.640;7.494;2023-06-10T04:37:46;18.90;99.90
39957;DHT22;48483;44.640;7.494;2023-06-10T04:40:14;18.90;99.90
39957;DHT22;48483;44.640;7.494;2023-06-10T04:42:42;18.90;99.90
39957;DHT22;48483;44.640;7.494;2023-06-10T04:45:09;19.00;99.90
39957;DHT22;48483;44.640;7.494;2023-06-10T04:47:37;18.90;99.90
39957;DHT22;48483;44.640;7.494;2023-06-10T04:50:06;18.90;99.90
39957;DHT22;48483;44.640;7.494;2023-06-10T04:52:32;18.90;99.90
39957;DHT22;48483;44.640;7.494;2023-06-10T04:55:00;18.90;99.90
39957;DHT22;48483;44.640;7.494;2023-06-10T04:57:27;18.90;99.90
39957;DHT22;48483;44.640;7.494;2023-06-10T04:59:53;18.90;99.90
39957;DHT22;48483;44.640;7.494;2023-06-10T05:02:20;18.90;99.90
39957;DHT22;48483;44.640;7.494;2023-06-10T05:04:48;18.90;99.90
39957;DHT22;48483;44.640;7.494;2023-06-10T05:07:14;19.00;99.90
39957;DHT22;48483;44.640;7.494;2023-06-10T05:09:41;18.90;99.90
39957;DHT22;48483;44.640;7.494;2023-06-10T05:12:08;18.90;99.90
39957;DHT22;48483;44.640;7.494;2023-06-10T05:14:35;18.90;99.90
39957;DHT22;48483;44.640;7.494;2023-06-10T05:17:02;18.80;99.90
39957;DHT22;48483;44.640;7.494;2023-06-10T05:19:28;18.90;99.90
39957;DHT22;48483;44.640;7.494;2023-06-10T05:21:56;18.90;99.90
39957;DHT22;48483;44.640;7.494;2023-06-10T05:24:23;18.90;99.90
39957;DHT22;48483;44.640;7.494;2023-06-10T05:26:50;18.90;99.90
39957;DHT22;48483;44.640;7.494;2023-06-10T05:29:16;18.90;99.90
39957;DHT22;48483;44.640;7.494;2023-06-10T05:31:43;18.90;99.90
39957;DHT22;48483;44.640;7.494;2023-06-10T05:34:09;18.90;99.90
39957;DHT22;48483;44.640;7.494;2023-06-10T05:36:36;19.00;99.90
39957;DHT22;48483;44.640;7.494;2023-06-10T05:39:05;19.10;99.90
39957;DHT22;48483;44.640;7.494;2023-06-10T05:41:32;19.10;99.90
39957;DHT22;48483;44.640;7.494;2023-06-10T05:43:59;19.20;99.90
39957;DHT22;48483;44.640;7.494;2023-06-10T05:46:25;19.10;99.90
39957;DHT22;48483;44.640;7.494;2023-06-10T05:48:52;19.30;99.90
39957;DHT22;48483;44.640;7.494;2023-06-10T05:51:18;19.50;99.90
39957;DHT22;48483;44.640;7.494;2023-06-10T05:53:45;19.70;99.90
39957;DHT22;48483;44.640;7.494;2023-06-10T05:56:14;19.80;99.90
39957;DHT22;48483;44.640;7.494;2023-06-10T05:58:41;19.80;99.90
39957;DHT22;48483;44.640;7.494;2023-06-10T06:01:07;19.70;99.90
39957;DHT22;48483;44.640;7.494;2023-06-10T06:03:34;19.80;99.90
39957;DHT22;48483;44.640;7.494;2023-06-10T06:06:00;19.80;99.90
39957;DHT22;48483;44.640;7.494;2023-06-10T06:08:27;19.80;99.90
39957;DHT22;48483;44.640;7.494;2023-06-10T06:10:53;19.80;99.90
39957;DHT22;48483;44.640;7.494;2023-06-10T06:13:21;19.80;99.90
39957;DHT22;48483;44.640;7.494;2023-06-10T06:15:48;19.80;99.90
39957;DHT22;48483;44.640;7.494;2023-06-10T06:18:15;19.90;99.90
39957;DHT22;48483;44.640;7.494;2023-06-10T06:20:41;20.00;99.90
39957;DHT22;48483;44.640;7.494;2023-06-10T06:23:08;20.00;99.90
39957;DHT22;48483;44.640;7.494;2023-06-10T06:25:37;20.10;99.90
39957;DHT22;48483;44.640;7.494;2023-06-10T06:28:06;20.20;99.90
39957;DHT22;48483;44.640;7.494;2023-06-10T06:30:33;20.40;99.90
39957;DHT22;48483;44.640;7.494;2023-06-10T06:33:00;20.50;99.90
39957;DHT22;48483;44.640;7.494;2023-06-10T06:35:27;20.60;99.90
39957;DHT22;48483;44.640;7.494;2023-06-10T06:37:54;20.70;99.90
39957;DHT22;48483;44.640;7.494;2023-06-10T06:40:25;20.80;99.90
39957;DHT22;48483;44.640;7.494;2023-06-10T06:42:52;20.70;99.90
39957;DHT22;48483;44.640;7.494;2023-06-10T06:45:49;20.90;99.90
39957;DHT22;48483;44.640;7.494;2023-06-10T06:48:16;21.00;99.90
39957;DHT22;48483;44.640;7.494;2023-06-10T06:50:43;21.20;99.90
39957;DHT22;48483;44.640;7.494;2023-06-10T06:53:09;21.30;99.90
39957;DHT22;48483;44.640;7.494;2023-06-10T06:55:36;21.30;99.90
39957;DHT22;48483;44.640;7.494;2023-06-10T06:58:02;21.20;99.90
39957;DHT22;48483;44.640;7.494;2023-06-10T07:00:30;21.20;99.90
39957;DHT22;48483;44.640;7.494;2023-06-10T07:02:58;21.20;99.90
39957;DHT22;48483;44.640;7.494;2023-06-10T07:05:26;21.20;99.90
39957;DHT22;48483;44.640;7.494;2023-06-10T07:07:53;21.20;99.90
39957;DHT22;48483;44.640;7.494;2023-06-10T07:10:21;21.20;99.90
39957;DHT22;48483;44.640;7.494;2023-06-10T07:12:48;21.30;99.90
39957;DHT22;48483;44.640;7.494;2023-06-10T07:15:15;21.30;99.90
39957;DHT22;48483;44.640;7.494;2023-06-10T07:17:41;21.30;99.90
39957;DHT22;48483;44.640;7.494;2023-06-10T07:20:10;21.40;99.90
39957;DHT22;48483;44.640;7.494;2023-06-10T07:22:37;21.40;99.90
39957;DHT22;48483;44.640;7.494;2023-06-10T07:25:06;21.40;99.90
39957;DHT22;48483;44.640;7.494;2023-06-10T07:27:33;21.40;99.90
39957;DHT22;48483;44.640;7.494;2023-06-10T07:29:59;21.40;99.90
39957;DHT22;48483;44.640;7.494;2023-06-10T07:32:27;21.40;99.90
39957;DHT22;48483;44.640;7.494;2023-06-10T07:34:53;21.40;99.90
39957;DHT22;48483;44.640;7.494;2023-06-10T07:37:21;21.30;99.90
39957;DHT22;48483;44.640;7.494;2023-06-10T07:39:48;21.40;99.90
39957;DHT22;48483;44.640;7.494;2023-06-10T07:42:15;21.40;99.90
39957;DHT22;48483;44.640;7.494;2023-06-10T07:44:42;21.40;99.90
39957;DHT22;48483;44.640;7.494;2023-06-10T07:47:09;21.40;99.90
39957;DHT22;48483;44.640;7.494;2023-06-10T07:49:35;21.40;99.90
39957;DHT22;48483;44.640;7.494;2023-06-10T07:52:02;21.40;99.90
39957;DHT22;48483;44.640;7.494;2023-06-10T07:54:30;21.50;99.90
39957;DHT22;48483;44.640;7.494;2023-06-10T07:56:57;21.40;99.90
39957;DHT22;48483;44.640;7.494;2023-06-10T07:59:23;21.50;99.90
39957;DHT22;48483;44.640;7.494;2023-06-10T08:01:52;21.50;99.90
39957;DHT22;48483;44.640;7.494;2023-06-10T08:04:19;21.50;99.90
39957;DHT22;48483;44.640;7.494;2023-06-10T08:06:45;21.50;99.90
39957;DHT22;48483;44.640;7.494;2023-06-10T08:09:12;21.60;99.90
39957;DHT22;48483;44.640;7.494;2023-06-10T08:11:40;21.60;99.90
39957;DHT22;48483;44.640;7.494;2023-06-10T08:14:06;21.70;99.90
39957;DHT22;48483;44.640;7.494;2023-06-10T08:16:33;21.70;99.90
39957;DHT22;48483;44.640;7.494;2023-06-10T08:19:00;21.60;99.90
39957;DHT22;48483;44.640;7.494;2023-06-10T08:21:26;21.70;99.90
39957;DHT22;48483;44.640;7.494;2023-06-10T08:23:54;21.70;99.90
39957;DHT22;48483;44.640;7.494;2023-06-10T08:26:21;21.80;99.90
39957;DHT22;48483;44.640;7.494;2023-06-10T08:28:50;21.90;99.90
39957;DHT22;48483;44.640;7.494;2023-06-10T08:31:16;21.90;99.90
39957;DHT22;48483;44.640;7.494;2023-06-10T08:33:43;22.00;99.90
39957;DHT22;48483;44.640;7.494;2023-06-10T08:36:09;21.80;99.90
39957;DHT22;48483;44.640;7.494;2023-06-10T08:38:36;21.90;99.90
39957;DHT22;48483;44.640;7.494;2023-06-10T08:41:05;22.00;99.90
39957;DHT22;48483;44.640;7.494;2023-06-10T08:43:34;22.10;99.90
39957;DHT22;48483;44.640;7.494;2023-06-10T08:46:08;22.10;99.90
39957;DHT22;48483;44.640;7.494;2023-06-10T08:48:41;22.20;99.90
39957;DHT22;48483;44.640;7.494;2023-06-10T08:51:10;22.20;99.90
39957;DHT22;48483;44.640;7.494;2023-06-10T08:53:41;22.20;99.90
39957;DHT22;48483;44.640;7.494;2023-06-10T08:56:10;22.20;99.90
39957;DHT22;48483;44.640;7.494;2023-06-10T08:58:37;22.30;99.90
39957;DHT22;48483;44.640;7.494;2023-06-10T09:01:09;22.40;99.90
39957;DHT22;48483;44.640;7.494;2023-06-10T09:03:37;22.60;99.90
39957;DHT22;48483;44.640;7.494;2023-06-10T09:06:05;22.70;99.90
39957;DHT22;48483;44.640;7.494;2023-06-10T09:08:33;22.70;99.90
39957;DHT22;48483;44.640;7.494;2023-06-10T09:11:01;22.80;99.90
39957;DHT22;48483;44.640;7.494;2023-06-10T09:13:28;22.90;99.90
39957;DHT22;48483;44.640;7.494;2023-06-10T09:15:54;23.00;99.90
39957;DHT22;48483;44.640;7.494;2023-06-10T09:18:24;23.00;99.90
39957;DHT22;48483;44.640;7.494;2023-06-10T09:20:50;22.90;99.90
39957;DHT22;48483;44.640;7.494;2023-06-10T09:23:17;22.90;99.90
39957;DHT22;48483;44.640;7.494;2023-06-10T09:25:43;22.90;99.90
39957;DHT22;48483;44.640;7.494;2023-06-10T09:28:13;22.90;99.90
39957;DHT22;48483;44.640;7.494;2023-06-10T09:30:40;22.90;99.90
39957;DHT22;48483;44.640;7.494;2023-06-10T09:33:10;23.10;99.90
39957;DHT22;48483;44.640;7.494;2023-06-10T09:35:45;23.30;99.90
39957;DHT22;48483;44.640;7.494;2023-06-10T09:38:14;23.30;99.90
39957;DHT22;48483;44.640;7.494;2023-06-10T09:40:49;23.40;99.90
39957;DHT22;48483;44.640;7.494;2023-06-10T09:43:16;23.30;99.90
39957;DHT22;48483;44.640;7.494;2023-06-10T09:45:42;23.40;99.90
39957;DHT22;48483;44.640;7.494;2023-06-10T09:48:09;23.50;99.90
39957;DHT22;48483;44.640;7.494;2023-06-10T09:50:43;23.60;99.90
39957;DHT22;48483;44.640;7.494;2023-06-10T09:53:12;23.60;99.90
39957;DHT22;48483;44.640;7.494;2023-06-10T09:55:40;23.60;99.90
39957;DHT22;48483;44.640;7.494;2023-06-10T09:58:07;23.60;99.90
39957;DHT22;48483;44.640;7.494;2023-06-10T10:00:34;23.60;99.90
39957;DHT22;48483;44.640;7.494;2023-06-10T10:03:01;23.70;99.90
39957;DHT22;48483;44.640;7.494;2023-06-10T10:05:28;23.70;99.90
39957;DHT22;48483;44.640;7.494;2023-06-10T10:07:57;23.60;99.90
39957;DHT22;48483;44.640;7.494;2023-06-10T10:10:24;23.50;99.90
39957;DHT22;48483;44.640;7.494;2023-06-10T10:12:54;23.60;99.90
39957;DHT22;48483;44.640;7.494;2023-06-10T10:15:24;23.70;99.90
39957;DHT22;48483;44.640;7.494;2023-06-10T10:17:55;23.90;99.90
39957;DHT22;48483;44.640;7.494;2023-06-10T10:20:26;24.00;99.90
39957;DHT22;48483;44.640;7.494;2023-06-10T10:22:57;24.00;99.90
39957;DHT22;48483;44.640;7.494;2023-06-10T10:25:27;24.10;99.90
39957;DHT22;48483;44.640;7.494;2023-06-10T10:27:57;24.10;99.90
39957;DHT22;48483;44.640;7.494;2023-06-10T10:30:24;24.10;99.90
39957;DHT22;48483;44.640;7.494;2023-06-10T10:32:56;24.10;99.90
39957;DHT22;48483;44.640;7.494;2023-06-10T10:35:24;24.10;99.90
39957;DHT22;48483;44.640;7.494;2023-06-10T10:37:52;24.20;99.90
39957;DHT22;48483;44.640;7.494;2023-06-10T10:40:21;24.20;99.90
39957;DHT22;48483;44.640;7.494;2023-06-10T10:42:49;24.30;99.90
39957;DHT22;48483;44.640;7.494;2023-06-10T10:45:17;24.30;99.90
39957;DHT22;48483;44.640;7.494;2023-06-10T10:47:45;24.30;99.90
39957;DHT22;48483;44.640;7.494;2023-06-10T10:50:16;24.40;99.90
39957;DHT22;48483;44.640;7.494;2023-06-10T10:52:51;24.30;99.90
39957;DHT22;48483;44.640;7.494;2023-06-10T10:55:21;24.20;99.90
39957;DHT22;48483;44.640;7.494;2023-06-10T10:57:55;24.30;99.90
39957;DHT22;48483;44.640;7.494;2023-06-10T11:00:28;24.40;99.90
39957;DHT22;48483;44.640;7.494;2023-06-10T11:02:58;24.70;99.90
39957;DHT22;48483;44.640;7.494;2023-06-10T11:05:32;24.70;99.90
39957;DHT22;48483;44.640;7.494;2023-06-10T11:08:01;24.60;99.90
39957;DHT22;48483;44.640;7.494;2023-06-10T11:10:33;24.60;99.90
39957;DHT22;48483;44.640;7.494;2023-06-10T11:13:00;24.60;99.90
39957;DHT22;48483;44.640;7.494;2023-06-10T11:15:28;24.60;99.90
39957;DHT22;48483;44.640;7.494;2023-06-10T11:18:09;24.70;99.90
39957;DHT22;48483;44.640;7.494;2023-06-10T11:20:55;24.80;99.90
39957;DHT22;48483;44.640;7.494;2023-06-10T11:23:29;25.00;99.90
39957;DHT22;48483;44.640;7.494;2023-06-10T11:29:06;25.10;99.90
39957;DHT22;48483;44.640;7.494;2023-06-10T11:31:45;25.20;99.90
39957;DHT22;48483;44.640;7.494;2023-06-10T11:34:13;25.00;99.90
39957;DHT22;48483;44.640;7.494;2023-06-10T11:36:40;25.10;99.90
39957;DHT22;48483;44.640;7.494;2023-06-10T11:39:09;25.00;99.90
39957;DHT22;48483;44.640;7.494;2023-06-10T11:41:38;25.10;99.90
39957;DHT22;48483;44.640;7.494;2023-06-10T11:44:08;24.80;99.90
39957;DHT22;48483;44.640;7.494;2023-06-10T11:46:36;24.70;99.90
39957;DHT22;48483;44.640;7.494;2023-06-10T11:49:03;24.70;99.90
39957;DHT22;48483;44.640;7.494;2023-06-10T11:51:33;24.90;99.90
39957;DHT22;48483;44.640;7.494;2023-06-10T11:54:00;25.00;99.90
39957;DHT22;48483;44.640;7.494;2023-06-10T11:56:28;24.90;99.90
39957;DHT22;48483;44.640;7.494;2023-06-10T11:58:58;25.00;99.90
39957;DHT22;48483;44.640;7.494;2023-06-10T12:01:28;25.00;99.90
39957;DHT22;48483;44.640;7.494;2023-06-10T12:04:03;24.90;99.90
39957;DHT22;48483;44.640;7.494;2023-06-10T12:06:40;24.80;99.90
39957;DHT22;48483;44.640;7.494;2023-06-10T12:09:12;24.90;99.90
39957;DHT22;48483;44.640;7.494;2023-06-10T12:11:39;24.90;99.90
39957;DHT22;48483;44.640;7.494;2023-06-10T12:14:07;24.80;99.90
39957;DHT22;48483;44.640;7.494;2023-06-10T12:16:34;24.70;99.90
39957;DHT22;48483;44.640;7.494;2023-06-10T12:19:02;24.70;99.90
39957;DHT22;48483;44.640;7.494;2023-06-10T12:21:30;24.70;99.90
39957;DHT22;48483;44.640;7.494;2023-06-10T12:24:05;24.70;99.90
39957;DHT22;48483;44.640;7.494;2023-06-10T12:26:40;24.80;99.90
39957;DHT22;48483;44.640;7.494;2023-06-10T12:29:20;24.80;99.90
39957;DHT22;48483;44.640;7.494;2023-06-10T12:31:59;24.80;99.90
39957;DHT22;48483;44.640;7.494;2023-06-10T12:34:34;24.80;99.90
39957;DHT22;48483;44.640;7.494;2023-06-10T12:37:01;24.80;99.90
39957;DHT22;48483;44.640;7.494;2023-06-10T12:39:31;24.60;99.90
39957;DHT22;48483;44.640;7.494;2023-06-10T12:41:58;24.60;99.90
39957;DHT22;48483;44.640;7.494;2023-06-10T12:44:38;24.70;99.90
39957;DHT22;48483;44.640;7.494;2023-06-10T12:47:09;24.70;99.90
39957;DHT22;48483;44.640;7.494;2023-06-10T12:49:36;24.70;99.90
39957;DHT22;48483;44.640;7.494;2023-06-10T12:52:04;24.70;99.90
39957;DHT22;48483;44.640;7.494;2023-06-10T12:54:31;24.60;99.90
39957;DHT22;48483;44.640;7.494;2023-06-10T12:56:58;24.60;99.90
39957;DHT22;48483;44.640;7.494;2023-06-10T12:59:26;24.60;99.90
39957;DHT22;48483;44.640;7.494;2023-06-10T13:01:55;24.60;99.90
39957;DHT22;48483;44.640;7.494;2023-06-10T13:04:21;24.60;99.90
39957;DHT22;48483;44.640;7.494;2023-06-10T13:06:49;24.70;99.90
39957;DHT22;48483;44.640;7.494;2023-06-10T13:09:15;24.60;99.90
39957;DHT22;48483;44.640;7.494;2023-06-10T13:11:42;24.70;99.90
39957;DHT22;48483;44.640;7.494;2023-06-10T13:14:10;24.70;99.90
39957;DHT22;48483;44.640;7.494;2023-06-10T13:16:37;24.70;99.90
39957;DHT22;48483;44.640;7.494;2023-06-10T13:19:06;24.80;99.90
39957;DHT22;48483;44.640;7.494;2023-06-10T13:21:33;24.80;99.90
39957;DHT22;48483;44.640;7.494;2023-06-10T13:24:00;24.80;99.90
39957;DHT22;48483;44.640;7.494;2023-06-10T13:26:27;24.90;99.90
39957;DHT22;48483;44.640;7.494;2023-06-10T13:28:53;24.90;99.90
39957;DHT22;48483;44.640;7.494;2023-06-10T13:31:20;25.00;99.90
39957;DHT22;48483;44.640;7.494;2023-06-10T13:33:47;25.00;99.90
39957;DHT22;48483;44.640;7.494;2023-06-10T13:36:15;25.10;99.90
39957;DHT22;48483;44.640;7.494;2023-06-10T13:38:42;25.10;99.90
39957;DHT22;48483;44.640;7.494;2023-06-10T13:41:08;25.20;99.90
39957;DHT22;48483;44.640;7.494;2023-06-10T13:43:36;25.20;99.90
39957;DHT22;48483;44.640;7.494;2023-06-10T13:46:03;25.10;99.90
39957;DHT22;48483;44.640;7.494;2023-06-10T13:48:29;25.00;99.90
39957;DHT22;48483;44.640;7.494;2023-06-10T13:50:56;25.10;99.90
39957;DHT22;48483;44.640;7.494;2023-06-10T13:53:24;25.10;99.90
39957;DHT22;48483;44.640;7.494;2023-06-10T13:55:50;25.10;99.90
39957;DHT22;48483;44.640;7.494;2023-06-10T13:58:17;25.10;99.90
39957;DHT22;48483;44.640;7.494;2023-06-10T14:00:44;25.10;99.90
39957;DHT22;48483;44.640;7.494;2023-06-10T14:03:10;25.10;99.90
39957;DHT22;48483;44.640;7.494;2023-06-10T14:05:37;25.10;99.90
39957;DHT22;48483;44.640;7.494;2023-06-10T14:08:04;25.10;99.90
39957;DHT22;48483;44.640;7.494;2023-06-10T14:10:32;25.20;99.90
39957;DHT22;48483;44.640;7.494;2023-06-10T14:12:59;25.20;99.90
39957;DHT22;48483;44.640;7.494;2023-06-10T14:15:26;25.20;99.90
39957;DHT22;48483;44.640;7.494;2023-06-10T14:17:53;25.00;99.90
39957;DHT22;48483;44.640;7.494;2023-06-10T14:20:20;25.10;99.90
39957;DHT22;48483;44.640;7.494;2023-06-10T14:22:46;25.10;99.90
39957;DHT22;48483;44.640;7.494;2023-06-10T14:25:13;25.10;99.90
39957;DHT22;48483;44.640;7.494;2023-06-10T14:27:41;25.10;99.90
39957;DHT22;48483;44.640;7.494;2023-06-10T14:30:08;25.30;99.90
39957;DHT22;48483;44.640;7.494;2023-06-10T14:32:35;25.40;99.90
39957;DHT22;48483;44.640;7.494;2023-06-10T14:35:03;25.50;99.90
39957;DHT22;48483;44.640;7.494;2023-06-10T14:37:29;25.50;99.90
39957;DHT22;48483;44.640;7.494;2023-06-10T14:39:56;25.40;99.90
39957;DHT22;48483;44.640;7.494;2023-06-10T14:42:23;25.30;99.90
39957;DHT22;48483;44.640;7.494;2023-06-10T14:44:51;25.40;99.90
39957;DHT22;48483;44.640;7.494;2023-06-10T14:47:17;25.50;99.90
39957;DHT22;48483;44.640;7.494;2023-06-10T14:49:44;25.50;99.90
39957;DHT22;48483;44.640;7.494;2023-06-10T14:52:11;25.50;99.90
39957;DHT22;48483;44.640;7.494;2023-06-10T14:54:37;25.60;99.90
39957;DHT22;48483;44.640;7.494;2023-06-10T14:57:05;25.60;99.90
39957;DHT22;48483;44.640;7.494;2023-06-10T14:59:32;25.50;99.90
39957;DHT22;48483;44.640;7.494;2023-06-10T15:02:00;25.30;99.90
39957;DHT22;48483;44.640;7.494;2023-06-10T15:04:27;25.30;99.90
39957;DHT22;48483;44.640;7.494;2023-06-10T15:06:54;25.30;99.90
39957;DHT22;48483;44.640;7.494;2023-06-10T15:09:21;25.40;99.90
39957;DHT22;48483;44.640;7.494;2023-06-10T15:11:47;25.40;99.90
39957;DHT22;48483;44.640;7.494;2023-06-10T15:14:14;25.60;99.90
39957;DHT22;48483;44.640;7.494;2023-06-10T15:16:41;25.60;99.90
39957;DHT22;48483;44.640;7.494;2023-06-10T15:19:09;25.60;99.90
39957;DHT22;48483;44.640;7.494;2023-06-10T15:21:35;25.60;99.90
39957;DHT22;48483;44.640;7.494;2023-06-10T15:24:03;25.70;99.90
39957;DHT22;48483;44.640;7.494;2023-06-10T15:26:30;25.70;99.90
39957;DHT22;48483;44.640;7.494;2023-06-10T15:28:56;25.60;99.90
39957;DHT22;48483;44.640;7.494;2023-06-10T15:31:23;25.70;99.90
39957;DHT22;48483;44.640;7.494;2023-06-10T15:33:50;25.60;99.90
39957;DHT22;48483;44.640;7.494;2023-06-10T15:36:18;25.50;99.90
39957;DHT22;48483;44.640;7.494;2023-06-10T15:38:44;25.50;99.90